This is the latest recevied weather packets stored in our database for station/object CA3EAP-13. If no packets are shown the sender has not sent any weather packets the latest 10 day(s).
| Time | Temp. | Humidity | Pressure | Rain* | Wind** | Luminosity | Snow |
|---|---|---|---|---|---|---|---|
| 1777749304 | 25° C | 30% | 1011.3 hPa | - | - | - | - |
| 1777748706 | 25° C | 29% | 1011.4 hPa | - | - | - | - |
| 1777748104 | 24.44° C | 28% | 1011.5 hPa | - | - | - | - |
| 1777747504 | 25° C | 28% | 1011.3 hPa | - | - | - | - |
| 1777746304 | 24.44° C | 33% | 1011.5 hPa | - | - | - | - |
| 1777745704 | 24.44° C | 31% | 1011.6 hPa | - | - | - | - |
| 1777745104 | 24.44° C | 31% | 1011.7 hPa | - | - | - | - |
| 1777744504 | 23.89° C | 31% | 1011.7 hPa | - | - | - | - |
| 1777743905 | 23.89° C | 33% | 1011.9 hPa | - | - | - | - |
| 1777743308 | 23.33° C | 35% | 1012 hPa | - | - | - | - |
| 1777742704 | 23.33° C | 36% | 1012.2 hPa | - | - | - | - |
| 1777742104 | 23.33° C | 36% | 1012.3 hPa | - | - | - | - |
| 1777741504 | 22.78° C | 35% | 1012.4 hPa | - | - | - | - |
| 1777740904 | 22.22° C | 37% | 1012.6 hPa | - | - | - | - |
| 1777740304 | 22.22° C | 42% | 1012.8 hPa | - | - | - | - |
| 1777739704 | 21.67° C | 41% | 1013.2 hPa | - | - | - | - |
| 1777739104 | 21.67° C | 41% | 1013.3 hPa | - | - | - | - |
| 1777738504 | 21.67° C | 44% | 1013.4 hPa | - | - | - | - |
| 1777737904 | 21.11° C | 47% | 1013.6 hPa | - | - | - | - |
| 1777737304 | 20.56° C | 49% | 1013.8 hPa | - | - | - | - |
| 1777736704 | 20.56° C | 50% | 1014 hPa | - | - | - | - |
| 1777736104 | 20° C | 52% | 1014.3 hPa | - | - | - | - |
| 1777735505 | 20° C | 55% | 1014.4 hPa | - | - | - | - |
| 1777734904 | 19.44° C | 54% | 1014.6 hPa | - | - | - | - |
| 1777734304 | 18.89° C | 56% | 1014.8 hPa | - | - | - | - |
* Rain since midnight (hover to see other rain measurements)
** Current wind speed in m/s (hover to see current wind gust speed)